This is the latest recevied weather packets stored in our database for station/object N0OQA. If no packets are shown the sender has not sent any weather packets the latest 10 day(s).
| Time | Temp. | Humidity | Pressure | Rain* | Wind** | Luminosity | Snow |
|---|---|---|---|---|---|---|---|
| 1788363806 | 23.33° C | 72% | 1015.5 hPa | 0 mm | - | - | - |
| 1788362905 | 22.78° C | 73% | 1015.6 hPa | 0 mm | - | - | - |
| 1788361702 | 22.22° C | 77% | 1015.6 hPa | 0 mm | - | - | - |
| 1788361400 | 22.22° C | 77% | 1015.6 hPa | 0 mm | - | - | - |
| 1788361100 | 22.22° C | 78% | 1015.5 hPa | 0 mm | - | - | - |
| 1788360799 | 21.67° C | 79% | 1015.4 hPa | 0 mm | - | - | - |
| 1788360499 | 21.67° C | 80% | 1015.3 hPa | 0 mm | - | - | - |
| 1788353589 | 18.33° C | 93% | 1015.9 hPa | 0 mm | - | - | - |
| 1788352388 | 18.89° C | 92% | 1015.9 hPa | 0 mm | - | - | - |
| 1788351487 | 18.89° C | 91% | 1015.7 hPa | 0 mm | - | - | - |
| 1788351186 | 18.89° C | 91% | 1015.6 hPa | 0 mm | - | - | - |
| 1788350284 | 18.89° C | 91% | 1015.7 hPa | 0 mm | - | - | - |
| 1788349984 | 18.89° C | 91% | 1015.7 hPa | 0 mm | - | - | - |
| 1788349083 | 18.89° C | 90% | 1015.9 hPa | 0 mm | - | - | - |
| 1788347581 | 18.89° C | 89% | 1015.7 hPa | 0 mm | - | - | - |
| 1788342774 | 19.44° C | 83% | 1015.1 hPa | 0 mm | - | - | - |
| 1788339770 | 20.56° C | 76% | 1014.7 hPa | 0 mm | - | - | - |
| 1788339469 | 20.56° C | 76% | 1014.7 hPa | 0 mm | - | - | - |
| 1788338869 | 21.11° C | 75% | 1015.1 hPa | 0 mm | - | - | - |
| 1788337968 | 20.56° C | 75% | 1015.1 hPa | 0 mm | - | - | - |
| 1788336766 | 20.56° C | 76% | 1015.6 hPa | 0 mm | - | - | - |
| 1788335563 | 20.56° C | 77% | 1015 hPa | 0 mm | - | - | - |
| 1788335263 | 20.56° C | 78% | 1015 hPa | 0 mm | - | - | - |
| 1788334362 | 20.56° C | 78% | 1015.3 hPa | 0 mm | - | - | - |
| 1788334062 | 20.56° C | 77% | 1015.4 hPa | 0 mm | - | - | - |
* Rain since midnight (hover to see other rain measurements)
** Current wind speed in m/s (hover to see current wind gust speed)